Time;durP1;ratioP1;P1;durP2;ratioP2;P2;SDS_P1;SDS_P2;PMS_P1;PMS_P2;Temp;Humidity;BMP_temperature;BMP_pressure;BME280_temperature;BME280_humidity;BME280_pressure;Samples;Min_cycle;Max_cycle;Signal;HPM_P1;HPM_P2
2023/08/27 00:00:26;;;;;;;248.88;149.70;;;;;;;;;;5036840;28;20083;-46
2023/08/27 00:02:51;;;;;;;252.47;151.70;;;;;;;;;;5036494;28;20028;-46
2023/08/27 00:05:16;;;;;;;252.53;152.30;;;;;;;;;;5042218;28;20029;-47
2023/08/27 00:07:41;;;;;;;251.02;151.88;;;;;;;;;;5042123;28;20288;-46
2023/08/27 00:10:07;;;;;;;163.37;96.90;;;;;;;;;;5037302;28;20029;-46
2023/08/27 00:12:32;;;;;;;253.52;152.05;;;;;;;;;;5043365;28;20044;-46
2023/08/27 00:14:58;;;;;;;255.90;154.20;;;;;;;;;;5032300;28;20012;-46
2023/08/27 00:17:24;;;;;;;250.50;150.97;;;;;;;;;;5040547;28;20083;-46
2023/08/27 00:19:49;;;;;;;252.40;151.45;;;;;;;;;;5041896;28;20029;-46
2023/08/27 00:22:15;;;;;;;255.30;153.25;;;;;;;;;;5045346;28;20052;-47
2023/08/27 00:24:40;;;;;;;254.45;153.07;;;;;;;;;;5042203;28;20382;-46
2023/08/27 00:27:05;;;;;;;257.90;154.47;;;;;;;;;;5028700;28;20079;-46
2023/08/27 00:29:31;;;;;;;255.80;154.40;;;;;;;;;;5039366;28;20032;-46
2023/08/27 00:31:56;;;;;;;265.17;159.10;;;;;;;;;;5030003;28;20032;-47
2023/08/27 00:34:30;;;;;;;260.33;155.10;;;;;;;;;;5038662;28;20033;-46
2023/08/27 00:36:55;;;;;;;263.15;158.48;;;;;;;;;;5041365;28;20267;-46
2023/08/27 00:39:20;;;;;;;263.80;156.77;;;;;;;;;;5039513;28;20420;-46
2023/08/27 00:41:45;;;;;;;259.47;156.47;;;;;;;;;;5045837;28;20280;-46
2023/08/27 00:44:11;;;;;;;262.03;156.63;;;;;;;;;;5038222;28;20083;-47
2023/08/27 00:46:36;;;;;;;266.03;158.53;;;;;;;;;;5033565;28;20283;-46
2023/08/27 00:49:01;;;;;;;270.13;162.02;;;;;;;;;;5036426;28;20340;-46
2023/08/27 00:51:27;;;;;;;260.47;157.30;;;;;;;;;;5019456;28;20029;-46
2023/08/27 00:53:52;;;;;;;263.10;160.05;;;;;;;;;;5022033;28;20033;-47
2023/08/27 00:56:17;;;;;;;270.87;162.27;;;;;;;;;;5024732;28;20017;-46
2023/08/27 00:58:43;;;;;;;291.40;173.23;;;;;;;;;;5024872;28;20280;-46
2023/08/27 01:01:08;;;;;;;90.18;51.30;;;;;;;;;;4993200;28;20048;-46
2023/08/27 01:03:33;;;;;;;3.50;2.23;;;;;;;;;;5017050;28;20030;-46
2023/08/27 01:05:58;;;;;;;5.30;2.45;;;;;;;;;;5022631;28;20292;-47
2023/08/27 01:08:46;;;;;;;6.77;2.63;;;;;;;;;;5022200;28;20114;-47
2023/08/27 01:11:36;;;;;;;4.72;2.25;;;;;;;;;;5016280;28;20278;-46
2023/08/27 01:14:09;;;;;;;5.25;2.25;;;;;;;;;;5022210;28;20044;-47
2023/08/27 01:16:37;;;;;;;5.85;2.47;;;;;;;;;;5001851;28;20029;-46
2023/08/27 01:19:06;;;;;;;7.28;2.38;;;;;;;;;;5013318;28;20525;-46
2023/08/27 01:21:32;;;;;;;5.30;2.08;;;;;;;;;;5020654;28;20095;-46
2023/08/27 01:23:57;;;;;;;5.83;2.30;;;;;;;;;;5019046;28;20108;-47
2023/08/27 01:26:23;;;;;;;4.65;2.20;;;;;;;;;;5000337;28;20022;-46
2023/08/27 01:28:52;;;;;;;4.65;2.30;;;;;;;;;;5018662;28;20051;-46
2023/08/27 01:31:21;;;;;;;3.20;1.88;;;;;;;;;;5019088;28;20037;-47
2023/08/27 01:33:49;;;;;;;4.30;2.20;;;;;;;;;;5018324;28;20026;-46
2023/08/27 01:36:15;;;;;;;5.88;2.38;;;;;;;;;;5019488;28;20037;-46
2023/08/27 01:38:41;;;;;;;5.38;2.80;;;;;;;;;;5022342;28;20033;-46
2023/08/27 01:41:06;;;;;;;6.15;2.67;;;;;;;;;;5021445;28;20029;-47
2023/08/27 01:43:32;;;;;;;7.50;2.22;;;;;;;;;;5020869;28;20051;-46
2023/08/27 01:45:57;;;;;;;4.80;2.35;;;;;;;;;;5018311;28;20052;-47
2023/08/27 01:48:22;;;;;;;6.03;2.00;;;;;;;;;;5016850;28;20037;-46
2023/08/27 01:50:47;;;;;;;4.63;2.27;;;;;;;;;;5012300;28;20281;-46
2023/08/27 01:53:13;;;;;;;5.37;2.07;;;;;;;;;;5017122;28;20281;-47
2023/08/27 01:55:38;;;;;;;7.73;2.20;;;;;;;;;;5018159;28;20075;-46
2023/08/27 01:58:04;;;;;;;7.47;2.47;;;;;;;;;;5020902;28;20495;-46
2023/08/27 02:00:29;;;;;;;4.38;2.15;;;;;;;;;;5018872;28;21196;-46
2023/08/27 02:02:54;;;;;;;3.58;2.25;;;;;;;;;;5022311;28;20022;-46
2023/08/27 02:05:20;;;;;;;5.23;2.40;;;;;;;;;;5017175;28;20032;-46
2023/08/27 02:07:45;;;;;;;7.67;2.33;;;;;;;;;;5017932;28;20065;-46
2023/08/27 02:10:10;;;;;;;4.45;2.20;;;;;;;;;;5018131;28;20026;-47
2023/08/27 02:12:35;;;;;;;6.60;2.07;;;;;;;;;;5016530;28;20400;-46
2023/08/27 02:15:03;;;;;;;5.80;2.77;;;;;;;;;;5016922;28;20325;-46
2023/08/27 02:17:28;;;;;;;4.97;2.28;;;;;;;;;;5019372;28;20018;-46
2023/08/27 02:19:53;;;;;;;6.97;2.20;;;;;;;;;;5015150;28;20018;-46
2023/08/27 02:22:19;;;;;;;6.35;2.28;;;;;;;;;;5009913;28;20036;-46
2023/08/27 02:24:44;;;;;;;3.50;2.30;;;;;;;;;;5019348;28;20022;-45
2023/08/27 02:27:09;;;;;;;4.97;2.00;;;;;;;;;;5020832;28;20050;-46
2023/08/27 02:29:37;;;;;;;5.20;2.50;;;;;;;;;;5020438;28;20367;-46
2023/08/27 02:32:03;;;;;;;4.40;2.35;;;;;;;;;;5016900;28;20294;-46
2023/08/27 02:34:28;;;;;;;4.15;2.28;;;;;;;;;;5014381;28;20025;-46
2023/08/27 02:36:53;;;;;;;7.07;2.15;;;;;;;;;;5021235;28;20030;-46
2023/08/27 02:39:19;;;;;;;6.57;2.70;;;;;;;;;;5020637;28;20018;-47
2023/08/27 02:41:44;;;;;;;7.03;2.43;;;;;;;;;;5017532;28;20276;-46
2023/08/27 02:44:09;;;;;;;4.63;2.10;;;;;;;;;;5019363;28;20664;-46
2023/08/27 02:46:34;;;;;;;4.17;2.20;;;;;;;;;;5019351;28;20296;-46
2023/08/27 02:49:00;;;;;;;5.00;2.00;;;;;;;;;;5020475;28;20476;-46
2023/08/27 02:51:25;;;;;;;4.93;2.30;;;;;;;;;;5023363;28;20284;-46
2023/08/27 02:53:51;;;;;;;4.70;2.00;;;;;;;;;;5021318;28;20056;-46
2023/08/27 02:56:19;;;;;;;9.73;3.45;;;;;;;;;;5019126;28;20292;-46
2023/08/27 02:58:47;;;;;;;5.25;2.85;;;;;;;;;;5023972;28;20034;-46
2023/08/27 03:01:17;;;;;;;4.05;2.30;;;;;;;;;;5016816;28;20026;-46
2023/08/27 03:03:43;;;;;;;7.30;2.92;;;;;;;;;;5022479;28;20049;-46
2023/08/27 03:06:08;;;;;;;3.75;2.22;;;;;;;;;;5019377;28;20102;-46
2023/08/27 03:08:33;;;;;;;2.92;1.50;;;;;;;;;;5024716;28;20045;-46
2023/08/27 03:10:59;;;;;;;6.03;2.30;;;;;;;;;;5021081;28;20129;-46
2023/08/27 03:13:24;;;;;;;8.73;2.60;;;;;;;;;;5025675;28;20295;-46
2023/08/27 03:15:49;;;;;;;16.67;3.17;;;;;;;;;;5019342;28;20276;-46
2023/08/27 03:18:15;;;;;;;5.97;2.57;;;;;;;;;;5020738;28;20299;-45
2023/08/27 03:20:40;;;;;;;3.38;2.17;;;;;;;;;;5022189;28;20030;-46
2023/08/27 03:23:05;;;;;;;6.13;2.57;;;;;;;;;;5022630;28;20476;-46
2023/08/27 03:25:31;;;;;;;4.50;2.67;;;;;;;;;;5020409;28;20020;-47
2023/08/27 03:27:56;;;;;;;6.90;2.42;;;;;;;;;;5022097;28;20021;-46
2023/08/27 03:30:21;;;;;;;5.77;2.63;;;;;;;;;;5021121;28;20032;-46
2023/08/27 03:32:46;;;;;;;7.20;2.23;;;;;;;;;;5022449;28;20642;-47
2023/08/27 03:35:12;;;;;;;11.73;3.67;;;;;;;;;;5017159;28;20288;-47
2023/08/27 03:37:37;;;;;;;6.27;2.80;;;;;;;;;;5022641;28;20387;-46
2023/08/27 03:40:02;;;;;;;7.17;2.87;;;;;;;;;;5002414;28;20022;-46
2023/08/27 03:42:28;;;;;;;6.00;2.55;;;;;;;;;;5015866;28;20030;-46
2023/08/27 03:44:53;;;;;;;5.82;2.55;;;;;;;;;;5022774;28;20071;-46
2023/08/27 03:47:18;;;;;;;5.60;2.20;;;;;;;;;;5021036;28;20030;-46
2023/08/27 03:49:43;;;;;;;12.43;4.00;;;;;;;;;;5022772;28;20064;-46
2023/08/27 03:52:09;;;;;;;4.40;2.10;;;;;;;;;;5019968;28;20068;-46
2023/08/27 03:54:34;;;;;;;5.87;2.53;;;;;;;;;;5004892;28;20315;-46
2023/08/27 03:56:59;;;;;;;6.67;2.47;;;;;;;;;;5024451;28;20037;-47
2023/08/27 03:59:24;;;;;;;8.90;2.58;;;;;;;;;;5015910;28;20392;-46
2023/08/27 04:01:50;;;;;;;3.73;1.80;;;;;;;;;;5025731;28;20438;-46
2023/08/27 04:04:16;;;;;;;8.70;2.28;;;;;;;;;;5012449;28;20288;-46
2023/08/27 04:06:41;;;;;;;6.67;2.97;;;;;;;;;;5019597;28;20079;-46
2023/08/27 04:09:06;;;;;;;5.20;2.50;;;;;;;;;;5022467;28;20037;-45
2023/08/27 04:11:32;;;;;;;5.68;2.85;;;;;;;;;;5025399;28;21130;-45
2023/08/27 04:13:57;;;;;;;4.38;2.67;;;;;;;;;;5021211;28;20033;-47
2023/08/27 04:16:22;;;;;;;8.02;2.30;;;;;;;;;;5020858;28;20045;-46
2023/08/27 04:18:48;;;;;;;3.33;2.27;;;;;;;;;;5016074;28;20060;-46
2023/08/27 04:21:13;;;;;;;4.45;2.45;;;;;;;;;;5020471;28;20727;-46
2023/08/27 04:23:38;;;;;;;5.87;2.93;;;;;;;;;;5021638;28;20021;-46
2023/08/27 04:26:03;;;;;;;8.67;2.70;;;;;;;;;;5020040;28;20272;-46
2023/08/27 04:28:31;;;;;;;7.07;2.33;;;;;;;;;;5020430;28;20040;-47
2023/08/27 04:30:57;;;;;;;4.85;2.55;;;;;;;;;;5017686;28;20124;-46
2023/08/27 04:33:22;;;;;;;5.70;2.17;;;;;;;;;;5015760;28;20149;-46
2023/08/27 04:35:49;;;;;;;5.30;2.40;;;;;;;;;;5017688;28;20151;-46
2023/08/27 04:38:15;;;;;;;3.85;2.47;;;;;;;;;;5020648;28;20060;-46
2023/08/27 04:40:41;;;;;;;8.00;2.80;;;;;;;;;;5015827;28;20025;-47
2023/08/27 04:43:06;;;;;;;8.77;2.83;;;;;;;;;;5022566;28;20121;-47
2023/08/27 04:45:31;;;;;;;5.27;3.13;;;;;;;;;;5022784;28;20276;-47
2023/08/27 04:47:56;;;;;;;5.50;3.47;;;;;;;;;;5016425;28;20281;-46
2023/08/27 04:50:22;;;;;;;5.37;3.00;;;;;;;;;;5014754;28;20291;-46
2023/08/27 04:52:47;;;;;;;3.40;2.50;;;;;;;;;;5017180;28;20029;-47
2023/08/27 04:55:12;;;;;;;8.23;2.80;;;;;;;;;;5012147;28;20806;-47
2023/08/27 04:57:37;;;;;;;5.07;2.43;;;;;;;;;;5019830;28;20026;-47
2023/08/27 05:00:04;;;;;;;6.45;2.72;;;;;;;;;;5023955;28;20030;-47
2023/08/27 05:02:29;;;;;;;7.00;2.60;;;;;;;;;;5017410;28;20045;-47
2023/08/27 05:04:54;;;;;;;6.40;2.60;;;;;;;;;;5015090;28;20147;-47
2023/08/27 05:07:19;;;;;;;4.17;2.60;;;;;;;;;;5018732;28;20283;-46
2023/08/27 05:09:46;;;;;;;6.60;2.58;;;;;;;;;;5021366;28;20268;-46
2023/08/27 05:12:11;;;;;;;13.18;3.00;;;;;;;;;;5018668;28;20037;-47
2023/08/27 05:14:36;;;;;;;6.45;3.70;;;;;;;;;;5024662;28;20036;-46
2023/08/27 05:17:02;;;;;;;4.88;2.70;;;;;;;;;;4997529;28;20030;-47
2023/08/27 05:19:27;;;;;;;6.20;2.97;;;;;;;;;;5024836;28;20508;-46
2023/08/27 05:21:52;;;;;;;4.63;2.80;;;;;;;;;;5022971;28;20118;-46
2023/08/27 05:24:18;;;;;;;5.50;2.73;;;;;;;;;;5016258;28;20022;-47
2023/08/27 05:26:43;;;;;;;6.27;2.63;;;;;;;;;;5019697;28;20021;-46
2023/08/27 05:29:08;;;;;;;5.63;3.20;;;;;;;;;;5023193;28;20733;-46
2023/08/27 05:31:33;;;;;;;5.67;2.80;;;;;;;;;;5021150;28;20033;-46
2023/08/27 05:33:58;;;;;;;6.57;2.40;;;;;;;;;;5020525;28;20029;-46
2023/08/27 05:36:24;;;;;;;4.53;2.77;;;;;;;;;;5021803;28;20638;-46
2023/08/27 05:38:49;;;;;;;4.80;2.93;;;;;;;;;;5024360;28;20144;-47
2023/08/27 05:41:14;;;;;;;9.57;3.03;;;;;;;;;;5016500;28;20029;-46
2023/08/27 05:43:40;;;;;;;5.35;2.53;;;;;;;;;;5024681;28;20276;-46
2023/08/27 05:46:06;;;;;;;12.10;6.65;;;;;;;;;;5018269;28;20079;-47
2023/08/27 05:48:31;;;;;;;7.70;4.37;;;;;;;;;;5023562;28;20029;-47
2023/08/27 05:50:59;;;;;;;6.73;2.50;;;;;;;;;;5019588;28;20040;-46
2023/08/27 05:53:24;;;;;;;4.32;2.60;;;;;;;;;;5018956;28;20029;-47
2023/08/27 05:55:49;;;;;;;5.38;2.72;;;;;;;;;;5017373;28;20116;-46
2023/08/27 05:58:15;;;;;;;5.43;3.07;;;;;;;;;;5014326;28;20135;-47
2023/08/27 06:00:41;;;;;;;6.75;3.10;;;;;;;;;;5017053;28;20272;-46
2023/08/27 06:03:06;;;;;;;4.97;2.88;;;;;;;;;;5015363;28;20022;-47
2023/08/27 06:05:32;;;;;;;5.07;2.80;;;;;;;;;;5019014;28;20544;-46
2023/08/27 06:07:58;;;;;;;6.07;2.58;;;;;;;;;;5022373;28;20041;-46
2023/08/27 06:10:23;;;;;;;5.55;2.75;;;;;;;;;;5016406;28;20029;-47
2023/08/27 06:12:49;;;;;;;6.87;2.77;;;;;;;;;;5012413;28;20025;-46
2023/08/27 06:15:14;;;;;;;5.43;2.83;;;;;;;;;;5017499;28;20030;-47
2023/08/27 06:17:39;;;;;;;5.03;2.78;;;;;;;;;;5010843;28;20028;-47
2023/08/27 06:20:07;;;;;;;7.68;2.63;;;;;;;;;;5011319;28;20033;-47
2023/08/27 06:22:32;;;;;;;4.75;3.03;;;;;;;;;;5011294;28;20627;-46
2023/08/27 06:24:57;;;;;;;7.07;2.97;;;;;;;;;;5022244;28;20028;-46
2023/08/27 06:27:23;;;;;;;5.37;2.60;;;;;;;;;;5025023;28;20287;-46
2023/08/27 06:29:48;;;;;;;7.80;2.90;;;;;;;;;;5013393;28;20043;-46
2023/08/27 06:44:54;;;;;;;6.32;2.88;;;;;;;;;;5040523;22;1389592;-46
2023/08/27 06:47:20;;;;;;;6.47;3.10;;;;;;;;;;5073690;28;20044;-46
2023/08/27 06:49:46;;;;;;;6.65;2.90;;;;;;;;;;5070236;28;20841;-46
2023/08/27 06:52:11;;;;;;;5.07;2.53;;;;;;;;;;5079782;28;20028;-46
2023/08/27 06:54:36;;;;;;;5.73;2.77;;;;;;;;;;5066101;28;20032;-46
2023/08/27 06:57:02;;;;;;;6.38;3.05;;;;;;;;;;5055037;28;20318;-46
2023/08/27 06:59:27;;;;;;;5.20;2.92;;;;;;;;;;5059120;28;20025;-46
2023/08/27 07:01:52;;;;;;;4.70;3.30;;;;;;;;;;5056150;28;20040;-46
2023/08/27 07:04:17;;;;;;;5.50;2.70;;;;;;;;;;5053503;28;20390;-46
2023/08/27 07:06:43;;;;;;;7.53;4.07;;;;;;;;;;5045441;28;20061;-46
2023/08/27 07:09:08;;;;;;;18.10;8.97;;;;;;;;;;5048519;28;20272;-46
2023/08/27 07:11:36;;;;;;;4.40;2.93;;;;;;;;;;5048742;28;20354;-46
2023/08/27 07:14:02;;;;;;;6.80;3.00;;;;;;;;;;5055796;28;20283;-46
2023/08/27 07:16:27;;;;;;;5.80;2.72;;;;;;;;;;5054340;28;20037;-46
2023/08/27 07:18:53;;;;;;;6.05;3.45;;;;;;;;;;5045783;28;20037;-46
2023/08/27 07:21:18;;;;;;;6.35;3.67;;;;;;;;;;5059512;28;20027;-46
2023/08/27 07:23:43;;;;;;;12.27;5.22;;;;;;;;;;5054335;28;20398;-46
2023/08/27 07:26:09;;;;;;;10.60;6.07;;;;;;;;;;5062799;28;20024;-46
2023/08/27 07:28:34;;;;;;;11.77;6.05;;;;;;;;;;5052853;28;20565;-46
2023/08/27 07:30:59;;;;;;;10.05;5.45;;;;;;;;;;5045487;28;20091;-46
2023/08/27 07:33:25;;;;;;;9.90;5.07;;;;;;;;;;5051001;28;20116;-46
2023/08/27 07:35:51;;;;;;;11.18;5.57;;;;;;;;;;5054675;28;20278;-46
2023/08/27 07:38:16;;;;;;;9.23;4.70;;;;;;;;;;5062407;28;20396;-46
2023/08/27 07:40:42;;;;;;;10.70;4.43;;;;;;;;;;5059061;28;20024;-46
2023/08/27 07:43:07;;;;;;;9.38;3.90;;;;;;;;;;5054373;28;20025;-46
2023/08/27 07:45:33;;;;;;;6.90;4.07;;;;;;;;;;5056687;28;20103;-46
2023/08/27 07:47:58;;;;;;;10.48;4.97;;;;;;;;;;5044404;28;20029;-46
2023/08/27 07:50:24;;;;;;;7.35;3.35;;;;;;;;;;5057136;28;20083;-46
2023/08/27 07:52:50;;;;;;;5.22;2.78;;;;;;;;;;5057978;28;20060;-46
2023/08/27 07:55:15;;;;;;;6.00;2.97;;;;;;;;;;5051500;28;20060;-46
2023/08/27 07:57:41;;;;;;;4.83;2.50;;;;;;;;;;5046324;28;20029;-46
2023/08/27 08:00:06;;;;;;;15.67;9.27;;;;;;;;;;5041972;28;20642;-45
2023/08/27 08:02:31;;;;;;;15.90;10.02;;;;;;;;;;5033416;28;20294;-45
2023/08/27 08:04:57;;;;;;;9.33;3.87;;;;;;;;;;5028747;28;20024;-46
2023/08/27 08:07:22;;;;;;;8.05;3.88;;;;;;;;;;5035628;28;20498;-46
2023/08/27 08:09:47;;;;;;;12.03;3.77;;;;;;;;;;5033345;28;20031;-46
2023/08/27 08:12:13;;;;;;;8.50;4.07;;;;;;;;;;5040209;28;20279;-46
2023/08/27 08:14:38;;;;;;;6.53;3.55;;;;;;;;;;5043067;28;20044;-46
2023/08/27 08:17:03;;;;;;;6.15;3.65;;;;;;;;;;5038433;28;20032;-46
2023/08/27 08:19:29;;;;;;;5.38;2.72;;;;;;;;;;5033131;28;20113;-46
2023/08/27 08:21:54;;;;;;;7.20;3.50;;;;;;;;;;5039989;28;20033;-46
2023/08/27 08:24:19;;;;;;;4.07;1.97;;;;;;;;;;5036202;28;20033;-46
2023/08/27 08:26:45;;;;;;;13.10;4.83;;;;;;;;;;5037106;28;20502;-46
2023/08/27 08:29:10;;;;;;;14.90;5.63;;;;;;;;;;5032168;28;20294;-46
2023/08/27 08:31:35;;;;;;;17.90;7.27;;;;;;;;;;5036850;28;20646;-46
2023/08/27 08:34:00;;;;;;;18.27;6.20;;;;;;;;;;5029219;28;20299;-46
2023/08/27 08:36:26;;;;;;;14.70;7.27;;;;;;;;;;5041805;28;20020;-46
2023/08/27 08:38:52;;;;;;;13.82;6.53;;;;;;;;;;5042081;28;20287;-46
2023/08/27 08:41:19;;;;;;;9.93;4.78;;;;;;;;;;5034120;28;20037;-45
2023/08/27 08:43:51;;;;;;;8.70;3.95;;;;;;;;;;5033269;28;20041;-46
2023/08/27 08:46:18;;;;;;;9.13;5.63;;;;;;;;;;5043783;28;20446;-46
2023/08/27 08:48:46;;;;;;;10.27;5.90;;;;;;;;;;5044874;28;20027;-46
2023/08/27 08:51:13;;;;;;;9.70;5.78;;;;;;;;;;5041911;28;20021;-46
2023/08/27 08:53:42;;;;;;;8.30;4.15;;;;;;;;;;5034679;28;20124;-46
2023/08/27 08:56:11;;;;;;;8.13;4.38;;;;;;;;;;5038869;28;20838;-46
2023/08/27 08:58:38;;;;;;;9.25;4.03;;;;;;;;;;5037456;28;20037;-45
2023/08/27 09:01:06;;;;;;;5.88;3.63;;;;;;;;;;5043617;28;20441;-46
2023/08/27 09:03:32;;;;;;;7.95;3.60;;;;;;;;;;5045218;28;20566;-46
2023/08/27 09:05:58;;;;;;;6.85;4.03;;;;;;;;;;5043521;28;20031;-46
2023/08/27 09:08:24;;;;;;;6.15;3.50;;;;;;;;;;5033124;28;20048;-46
2023/08/27 09:10:50;;;;;;;6.22;3.35;;;;;;;;;;5030865;28;20035;-46
2023/08/27 09:13:19;;;;;;;8.25;2.85;;;;;;;;;;5028186;28;20029;-46
2023/08/27 09:15:44;;;;;;;4.60;3.17;;;;;;;;;;5029885;28;20033;-46
2023/08/27 09:18:09;;;;;;;8.50;3.53;;;;;;;;;;5030442;28;20036;-46
2023/08/27 09:20:35;;;;;;;11.05;4.00;;;;;;;;;;5036012;28;20112;-46
2023/08/27 09:23:01;;;;;;;9.68;3.70;;;;;;;;;;5026099;28;20034;-46
2023/08/27 09:25:27;;;;;;;8.20;4.17;;;;;;;;;;5034853;28;20028;-45
2023/08/27 09:27:52;;;;;;;9.77;3.92;;;;;;;;;;5035580;28;20793;-46
2023/08/27 09:30:17;;;;;;;6.25;3.10;;;;;;;;;;5037079;28;20376;-46
2023/08/27 09:32:45;;;;;;;17.10;4.23;;;;;;;;;;5035045;28;20025;-46
2023/08/27 09:35:10;;;;;;;8.98;3.35;;;;;;;;;;5025973;28;20325;-46
2023/08/27 09:37:40;;;;;;;9.40;3.53;;;;;;;;;;5034203;28;20038;-46
2023/08/27 09:40:06;;;;;;;15.82;5.20;;;;;;;;;;5031564;28;20306;-46
2023/08/27 09:42:32;;;;;;;11.65;3.40;;;;;;;;;;5038881;28;20746;-47
2023/08/27 09:44:57;;;;;;;10.20;3.33;;;;;;;;;;5027583;28;20025;-46
2023/08/27 09:47:30;;;;;;;7.83;3.00;;;;;;;;;;5035182;28;21270;-46
2023/08/27 09:49:55;;;;;;;11.38;3.65;;;;;;;;;;5036585;28;21013;-45
2023/08/27 09:52:24;;;;;;;6.07;3.20;;;;;;;;;;5033938;28;20025;-46
2023/08/27 09:54:50;;;;;;;16.92;3.65;;;;;;;;;;5029286;28;20736;-46
2023/08/27 09:57:19;;;;;;;11.50;4.13;;;;;;;;;;5035163;28;20074;-46
2023/08/27 09:59:44;;;;;;;6.47;3.35;;;;;;;;;;5039138;28;20147;-46
2023/08/27 10:02:13;;;;;;;7.20;3.22;;;;;;;;;;5035671;28;20795;-47
2023/08/27 10:04:49;;;;;;;7.07;2.58;;;;;;;;;;5040204;28;20072;-46
2023/08/27 10:07:15;;;;;;;5.72;2.90;;;;;;;;;;5021446;28;20541;-46
2023/08/27 10:09:40;;;;;;;48.45;33.50;;;;;;;;;;5034650;28;20032;-46
2023/08/27 10:12:07;;;;;;;28.95;17.95;;;;;;;;;;5040068;28;20099;-46
2023/08/27 10:14:33;;;;;;;11.05;4.90;;;;;;;;;;5035391;28;20036;-46
2023/08/27 10:16:58;;;;;;;6.25;3.60;;;;;;;;;;5035141;28;20505;-47
2023/08/27 10:19:24;;;;;;;6.43;3.08;;;;;;;;;;5032605;28;20029;-46
2023/08/27 10:21:49;;;;;;;10.68;3.97;;;;;;;;;;5030222;28;20029;-47
2023/08/27 10:24:15;;;;;;;5.40;2.80;;;;;;;;;;5033721;28;20037;-46
2023/08/27 10:26:42;;;;;;;8.93;3.80;;;;;;;;;;5029433;28;20016;-47
2023/08/27 10:29:07;;;;;;;133.85;70.50;;;;;;;;;;5035499;28;20267;-47
2023/08/27 10:31:33;;;;;;;17.85;9.55;;;;;;;;;;5033342;28;20079;-47
2023/08/27 10:33:58;;;;;;;6.57;3.70;;;;;;;;;;5034953;28;20078;-47
2023/08/27 10:36:26;;;;;;;4.60;2.83;;;;;;;;;;5029631;28;20280;-46
2023/08/27 10:38:52;;;;;;;3.95;2.83;;;;;;;;;;5029990;28;20028;-47
2023/08/27 10:41:19;;;;;;;4.90;2.40;;;;;;;;;;5028143;28;20048;-47
2023/08/27 10:43:44;;;;;;;6.20;2.35;;;;;;;;;;5032513;28;20055;-47
2023/08/27 10:46:10;;;;;;;7.97;3.25;;;;;;;;;;5031713;28;20403;-47
2023/08/27 10:48:37;;;;;;;10.95;4.10;;;;;;;;;;5034599;28;20059;-47
2023/08/27 10:51:11;;;;;;;7.50;3.70;;;;;;;;;;5028768;28;20751;-48
2023/08/27 10:53:40;;;;;;;5.97;3.30;;;;;;;;;;5033869;28;20041;-46
2023/08/27 10:56:25;;;;;;;5.63;2.90;;;;;;;;;;5034372;28;20025;-47
2023/08/27 10:58:50;;;;;;;5.50;2.97;;;;;;;;;;5035302;28;20040;-47
2023/08/27 11:01:18;;;;;;;3.90;2.50;;;;;;;;;;5035537;28;20033;-47
2023/08/27 11:03:54;;;;;;;5.00;1.90;;;;;;;;;;5034949;28;20071;-47
2023/08/27 11:06:21;;;;;;;541.08;288.05;;;;;;;;;;5029907;28;20021;-48
2023/08/27 11:08:49;;;;;;;5.45;2.70;;;;;;;;;;5041128;28;20021;-46
2023/08/27 11:11:15;;;;;;;108.32;50.83;;;;;;;;;;5034996;28;20033;-47
2023/08/27 11:13:46;;;;;;;7.57;2.20;;;;;;;;;;5029046;28;20041;-48
2023/08/27 11:16:12;;;;;;;7.93;5.27;;;;;;;;;;5037390;28;20280;-46
2023/08/27 11:19:03;;;;;;;8.77;4.45;;;;;;;;;;5039787;28;20110;-47
2023/08/27 11:21:28;;;;;;;7.25;2.70;;;;;;;;;;5037640;28;20040;-47
2023/08/27 11:24:26;;;;;;;7.90;3.40;;;;;;;;;;5034547;28;20083;-47
2023/08/27 11:26:52;;;;;;;6.05;3.47;;;;;;;;;;5002938;28;20028;-47
2023/08/27 11:29:23;;;;;;;5.88;3.45;;;;;;;;;;5042070;28;20585;-47
2023/08/27 11:31:49;;;;;;;2.77;1.67;;;;;;;;;;5035602;28;20032;-48
2023/08/27 11:34:14;;;;;;;6.53;2.55;;;;;;;;;;5030262;28;20037;-47
2023/08/27 11:36:41;;;;;;;4.80;3.00;;;;;;;;;;5035291;28;20033;-47
2023/08/27 11:39:08;;;;;;;6.88;2.33;;;;;;;;;;5035684;28;20040;-47
2023/08/27 11:41:37;;;;;;;4.38;2.22;;;;;;;;;;5033499;28;20120;-47
2023/08/27 11:44:07;;;;;;;5.47;2.42;;;;;;;;;;5032210;28;20025;-48
2023/08/27 11:46:33;;;;;;;6.38;2.58;;;;;;;;;;5034308;28;20049;-47
2023/08/27 11:48:59;;;;;;;8.57;2.75;;;;;;;;;;5037557;28;20033;-47
2023/08/27 11:51:24;;;;;;;4.70;3.00;;;;;;;;;;5029313;28;20427;-47
2023/08/27 11:53:50;;;;;;;5.82;2.70;;;;;;;;;;5041592;28;20028;-47
2023/08/27 11:56:16;;;;;;;8.77;4.07;;;;;;;;;;5037204;28;20029;-47
2023/08/27 11:58:41;;;;;;;5.75;2.75;;;;;;;;;;5041063;28;20024;-47
2023/08/27 12:01:07;;;;;;;4.95;2.55;;;;;;;;;;5033602;28;20033;-48
2023/08/27 12:03:33;;;;;;;4.45;2.33;;;;;;;;;;5038075;28;20040;-47
2023/08/27 12:05:58;;;;;;;6.35;3.05;;;;;;;;;;5036294;28;20048;-47
2023/08/27 12:08:24;;;;;;;5.85;2.88;;;;;;;;;;5041936;28;20032;-48
2023/08/27 12:10:49;;;;;;;5.33;2.47;;;;;;;;;;5037100;28;20025;-47
2023/08/27 12:13:14;;;;;;;4.90;2.53;;;;;;;;;;5040129;28;20033;-48
2023/08/27 12:15:40;;;;;;;5.47;2.50;;;;;;;;;;5035387;28;20026;-48
2023/08/27 12:18:08;;;;;;;6.20;2.80;;;;;;;;;;5039010;28;20036;-47
2023/08/27 12:20:35;;;;;;;3.08;2.00;;;;;;;;;;5033627;28;20025;-47
2023/08/27 12:23:11;;;;;;;8.38;2.65;;;;;;;;;;5038270;28;20029;-47
2023/08/27 12:25:49;;;;;;;4.28;2.40;;;;;;;;;;5035028;28;20391;-47
2023/08/27 12:28:15;;;;;;;5.05;2.13;;;;;;;;;;5040291;28;20400;-47
2023/08/27 12:30:53;;;;;;;5.90;2.47;;;;;;;;;;5027592;28;20487;-47
2023/08/27 12:33:18;;;;;;;4.00;2.20;;;;;;;;;;5037874;28;20082;-47
2023/08/27 12:35:47;;;;;;;4.65;2.08;;;;;;;;;;5032826;28;20442;-47
2023/08/27 12:38:13;;;;;;;4.95;2.38;;;;;;;;;;5035118;28;20406;-47
2023/08/27 12:40:39;;;;;;;15.15;7.65;;;;;;;;;;5037715;28;20138;-47
2023/08/27 12:43:04;;;;;;;7.33;3.67;;;;;;;;;;5032919;28;22062;-47
2023/08/27 12:45:29;;;;;;;4.93;3.33;;;;;;;;;;5034199;28;20375;-47
2023/08/27 12:47:55;;;;;;;5.43;3.00;;;;;;;;;;5032091;28;20099;-47
2023/08/27 12:50:20;;;;;;;12.60;7.00;;;;;;;;;;5039797;28;20029;-47
2023/08/27 12:52:45;;;;;;;5.70;2.88;;;;;;;;;;5034299;28;21388;-47
2023/08/27 12:55:11;;;;;;;4.82;2.90;;;;;;;;;;5038911;28;20029;-48
2023/08/27 12:57:39;;;;;;;7.18;2.50;;;;;;;;;;5037703;28;20025;-47
2023/08/27 13:00:06;;;;;;;7.25;2.55;;;;;;;;;;5035368;28;20246;-47
2023/08/27 13:02:31;;;;;;;7.78;2.78;;;;;;;;;;5040900;28;20013;-47
2023/08/27 13:04:56;;;;;;;4.77;2.10;;;;;;;;;;5034334;28;20025;-48
2023/08/27 13:07:21;;;;;;;5.20;2.23;;;;;;;;;;5040319;28;20302;-47
2023/08/27 13:09:47;;;;;;;22.30;13.00;;;;;;;;;;5037806;28;20040;-47
2023/08/27 13:12:14;;;;;;;8.27;4.97;;;;;;;;;;5033279;28;20855;-47
2023/08/27 13:14:39;;;;;;;5.85;3.33;;;;;;;;;;5040246;28;20275;-47
2023/08/27 13:17:05;;;;;;;7.13;3.70;;;;;;;;;;5037601;28;20093;-47
2023/08/27 13:19:30;;;;;;;6.53;2.97;;;;;;;;;;5040596;28;20279;-47
2023/08/27 13:21:55;;;;;;;5.63;2.43;;;;;;;;;;5026661;28;20116;-48
2023/08/27 13:24:20;;;;;;;4.63;2.53;;;;;;;;;;5040598;28;20287;-47
2023/08/27 13:26:48;;;;;;;4.83;2.90;;;;;;;;;;5039954;28;20132;-48
2023/08/27 13:29:14;;;;;;;4.75;2.53;;;;;;;;;;5039431;28;20843;-47
2023/08/27 13:31:39;;;;;;;14.85;8.07;;;;;;;;;;5037071;28;20033;-47
2023/08/27 13:34:05;;;;;;;24.70;16.40;;;;;;;;;;5035132;28;20112;-47
2023/08/27 13:36:31;;;;;;;11.88;7.40;;;;;;;;;;5041720;28;20503;-47
2023/08/27 13:38:56;;;;;;;6.65;4.50;;;;;;;;;;5035495;28;20083;-47
2023/08/27 13:41:22;;;;;;;5.90;3.70;;;;;;;;;;5031272;28;20360;-47
2023/08/27 13:43:47;;;;;;;8.65;3.67;;;;;;;;;;5034573;28;20432;-47
2023/08/27 13:46:13;;;;;;;5.33;2.47;;;;;;;;;;5035103;28;20039;-47
2023/08/27 13:48:39;;;;;;;4.97;3.00;;;;;;;;;;5038595;28;20787;-47
2023/08/27 13:51:05;;;;;;;3.88;2.40;;;;;;;;;;5058689;22;20052;-46
2023/08/27 13:53:30;;;;;;;6.43;2.60;;;;;;;;;;5034171;28;20037;-47
2023/08/27 13:55:55;;;;;;;5.18;2.70;;;;;;;;;;5037413;28;20079;-46
2023/08/27 13:58:21;;;;;;;7.37;3.03;;;;;;;;;;5039446;28;20055;-46
2023/08/27 14:00:46;;;;;;;9.53;4.00;;;;;;;;;;5031556;28;20044;-46
2023/08/27 14:03:11;;;;;;;7.20;4.33;;;;;;;;;;5033620;28;20298;-46
2023/08/27 14:05:36;;;;;;;5.93;3.13;;;;;;;;;;5039606;28;20029;-46
2023/08/27 14:08:03;;;;;;;5.13;2.70;;;;;;;;;;5038226;28;20040;-46
2023/08/27 14:10:28;;;;;;;5.95;3.00;;;;;;;;;;5017271;28;20259;-47
2023/08/27 14:12:53;;;;;;;5.50;3.55;;;;;;;;;;5030416;28;20052;-46
2023/08/27 14:15:19;;;;;;;7.10;3.50;;;;;;;;;;5029417;28;20021;-46
2023/08/27 14:17:44;;;;;;;13.27;2.80;;;;;;;;;;5017709;28;20358;-46
2023/08/27 14:20:09;;;;;;;5.20;2.40;;;;;;;;;;5029134;28;20275;-47
2023/08/27 14:22:35;;;;;;;6.38;2.63;;;;;;;;;;5036430;28;20310;-47
2023/08/27 14:25:03;;;;;;;4.57;2.47;;;;;;;;;;5034880;28;20083;-46
2023/08/27 14:27:28;;;;;;;4.45;2.40;;;;;;;;;;5031792;28;20277;-46
2023/08/27 14:29:54;;;;;;;5.55;2.25;;;;;;;;;;5036619;28;24194;-47
2023/08/27 14:32:19;;;;;;;6.43;1.93;;;;;;;;;;5024754;28;20063;-46
2023/08/27 14:34:44;;;;;;;6.47;2.20;;;;;;;;;;5036796;28;20760;-47
2023/08/27 14:37:10;;;;;;;4.93;1.70;;;;;;;;;;5024169;28;20120;-46
2023/08/27 14:39:35;;;;;;;7.13;2.30;;;;;;;;;;5021229;28;20689;-46
2023/08/27 14:42:01;;;;;;;5.43;2.10;;;;;;;;;;5029755;28;20020;-47
2023/08/27 14:44:26;;;;;;;4.55;2.22;;;;;;;;;;5030195;28;20302;-46